createdAt,value
2024-04-14T00:00:12.654Z,20.30
2024-04-14T00:02:39.659Z,20.26
2024-04-14T00:05:06.741Z,19.77
2024-04-14T00:07:33.622Z,20.07
2024-04-14T00:10:00.439Z,20.05
2024-04-14T00:12:27.261Z,19.96
2024-04-14T00:14:54.087Z,19.97
2024-04-14T00:17:20.837Z,20.00
2024-04-14T00:19:52.939Z,19.97
2024-04-14T00:22:20.282Z,19.88
2024-04-14T00:24:48.325Z,19.96
2024-04-14T00:27:15.106Z,19.87
2024-04-14T00:29:41.915Z,19.94
2024-04-14T00:32:08.693Z,19.91
2024-04-14T00:34:35.516Z,19.82
2024-04-14T00:37:02.358Z,19.94
2024-04-14T00:39:29.143Z,19.83
2024-04-14T00:41:56.329Z,19.70
2024-04-14T00:44:23.097Z,19.70
2024-04-14T00:46:49.941Z,19.77
2024-04-14T00:49:16.807Z,19.71
2024-04-14T00:51:43.587Z,19.77
2024-04-14T00:54:12.642Z,19.66
2024-04-14T00:56:39.802Z,19.70
2024-04-14T00:59:06.970Z,19.71
2024-04-14T01:01:33.710Z,19.60
2024-04-14T01:04:00.648Z,19.60
2024-04-14T01:06:27.525Z,19.59
2024-04-14T01:08:54.774Z,19.47
2024-04-14T01:11:22.050Z,19.57
2024-04-14T01:13:48.991Z,19.39
2024-04-14T01:16:15.742Z,19.58
2024-04-14T01:18:42.490Z,19.40
2024-04-14T01:21:09.341Z,19.30
2024-04-14T01:23:36.345Z,19.36
2024-04-14T01:26:03.291Z,19.34
2024-04-14T01:28:30.050Z,19.33
2024-04-14T01:30:57.030Z,19.36
2024-04-14T01:33:23.798Z,19.25
2024-04-14T01:35:50.538Z,19.08
2024-04-14T01:38:24.586Z,19.22
2024-04-14T01:40:53.133Z,19.09
2024-04-14T01:43:19.861Z,19.10
2024-04-14T01:45:47.034Z,19.26
2024-04-14T01:48:14.089Z,19.11
2024-04-14T01:50:41.353Z,19.11
2024-04-14T01:53:08.328Z,18.97
2024-04-14T01:55:35.126Z,19.08
2024-04-14T01:58:02.019Z,18.98
2024-04-14T02:00:29.163Z,18.99
2024-04-14T02:02:57.326Z,18.38
2024-04-14T02:05:24.335Z,19.03
2024-04-14T02:07:51.086Z,18.83
2024-04-14T02:10:17.873Z,18.81
2024-04-14T02:12:44.718Z,18.97
2024-04-14T02:15:11.511Z,18.81
2024-04-14T02:17:38.441Z,18.75
2024-04-14T02:20:05.885Z,18.48
2024-04-14T02:22:32.687Z,18.17
2024-04-14T02:24:59.566Z,18.65
2024-04-14T02:27:26.459Z,18.50
2024-04-14T02:29:53.309Z,18.62
2024-04-14T02:32:20.296Z,18.59
2024-04-14T02:34:47.353Z,18.17
2024-04-14T02:37:14.091Z,18.31
2024-04-14T02:39:40.861Z,18.46
2024-04-14T02:42:07.649Z,18.41
2024-04-14T02:44:34.397Z,18.41
2024-04-14T02:47:01.134Z,18.49
2024-04-14T02:49:29.935Z,18.32
2024-04-14T02:51:57.714Z,18.27
2024-04-14T02:54:25.064Z,18.47
2024-04-14T02:56:51.964Z,18.47
2024-04-14T02:59:19.014Z,18.58
2024-04-14T03:01:47.167Z,18.31
2024-04-14T03:04:14.160Z,18.45
2024-04-14T03:06:41.109Z,18.42
2024-04-14T03:09:07.864Z,18.26
2024-04-14T03:11:34.670Z,18.33
2024-04-14T03:14:01.488Z,18.16
2024-04-14T03:16:28.271Z,18.31
2024-04-14T03:18:55.147Z,18.31
2024-04-14T03:21:24.336Z,18.07
2024-04-14T03:23:51.651Z,17.74
2024-04-14T03:26:18.523Z,18.20
2024-04-14T03:28:45.287Z,18.12
2024-04-14T03:31:12.415Z,18.10
2024-04-14T03:33:39.393Z,18.39
2024-04-14T03:36:08.323Z,18.27
2024-04-14T03:38:35.983Z,18.40
2024-04-14T03:41:03.165Z,18.29
2024-04-14T03:43:30.517Z,18.34
2024-04-14T03:45:57.560Z,18.34
2024-04-14T03:48:24.578Z,18.52
2024-04-14T03:50:51.548Z,18.38
2024-04-14T03:53:18.481Z,18.31
2024-04-14T03:55:45.546Z,18.50
2024-04-14T03:58:12.313Z,18.16
2024-04-14T04:00:39.340Z,18.07
2024-04-14T04:03:06.231Z,18.10
2024-04-14T04:05:32.986Z,18.27
2024-04-14T04:07:59.749Z,18.16
2024-04-14T04:10:26.503Z,18.25
2024-04-14T04:12:53.399Z,18.12
2024-04-14T04:15:20.227Z,18.13
2024-04-14T04:17:47.188Z,17.87
2024-04-14T04:20:14.180Z,18.05
2024-04-14T04:22:40.905Z,18.26
2024-04-14T04:25:07.691Z,18.16
2024-04-14T04:27:34.595Z,18.36
2024-04-14T04:30:01.448Z,18.35
2024-04-14T04:32:28.238Z,18.26
2024-04-14T04:34:55.017Z,18.39
2024-04-14T04:37:21.763Z,18.36
2024-04-14T04:39:48.627Z,18.24
2024-04-14T04:42:15.375Z,18.39
2024-04-14T04:44:42.223Z,18.45
2024-04-14T04:47:08.965Z,18.54
2024-04-14T04:49:35.736Z,18.42
2024-04-14T04:52:02.565Z,18.77
2024-04-14T04:54:29.410Z,18.77
2024-04-14T04:56:56.145Z,19.05
2024-04-14T04:59:23.504Z,19.03
2024-04-14T05:01:50.243Z,19.19
2024-04-14T05:04:17.006Z,18.94
2024-04-14T05:06:43.788Z,18.93
2024-04-14T05:09:10.558Z,18.99
2024-04-14T05:11:37.283Z,18.81
2024-04-14T05:14:04.025Z,18.82
2024-04-14T05:16:30.764Z,18.90
2024-04-14T05:18:57.540Z,18.86
2024-04-14T05:21:24.318Z,18.73
2024-04-14T05:23:51.124Z,18.45
2024-04-14T05:26:17.964Z,18.88
2024-04-14T05:28:44.700Z,18.67
2024-04-14T05:31:11.549Z,18.66
2024-04-14T05:33:38.333Z,18.84
2024-04-14T05:36:05.443Z,18.68
2024-04-14T05:38:36.510Z,18.80
2024-04-14T05:41:03.455Z,18.57
2024-04-14T05:43:30.191Z,18.67
2024-04-14T05:45:57.081Z,18.56
2024-04-14T05:48:23.889Z,18.49
2024-04-14T05:50:50.700Z,18.65
2024-04-14T05:53:17.437Z,18.70
2024-04-14T05:55:44.208Z,18.81
2024-04-14T05:58:10.948Z,18.62
2024-04-14T06:00:38.364Z,18.55
2024-04-14T06:03:05.868Z,18.77
2024-04-14T06:05:32.887Z,18.47
2024-04-14T06:07:59.832Z,18.81
2024-04-14T06:10:27.446Z,18.95
2024-04-14T06:12:54.195Z,18.86
2024-04-14T06:15:20.923Z,18.90
2024-04-14T06:17:47.712Z,18.76
2024-04-14T06:20:14.539Z,18.77
2024-04-14T06:22:41.323Z,18.93
2024-04-14T06:25:08.112Z,18.97
2024-04-14T06:27:34.921Z,19.17
2024-04-14T06:30:01.763Z,19.38
2024-04-14T06:32:28.664Z,19.49
2024-04-14T06:34:55.413Z,19.67
2024-04-14T06:37:22.233Z,19.29
2024-04-14T06:39:49.004Z,19.74
2024-04-14T06:42:17.137Z,20.05
2024-04-14T06:44:44.281Z,20.19
2024-04-14T06:47:12.092Z,19.96
2024-04-14T06:49:38.954Z,20.33
2024-04-14T06:52:06.260Z,20.66
2024-04-14T06:54:33.085Z,20.79
2024-04-14T06:56:59.859Z,20.75
2024-04-14T06:59:26.570Z,21.09
2024-04-14T07:01:53.483Z,21.23
2024-04-14T07:04:20.357Z,21.31
2024-04-14T07:06:47.305Z,21.27
2024-04-14T07:09:14.178Z,21.39
2024-04-14T07:11:40.927Z,21.60
2024-04-14T07:14:07.748Z,21.59
2024-04-14T07:16:34.521Z,21.71
2024-04-14T07:19:01.340Z,21.78
2024-04-14T07:21:28.149Z,21.93
2024-04-14T07:23:54.888Z,22.00
2024-04-14T07:26:21.695Z,22.03
2024-04-14T07:28:48.394Z,21.94
2024-04-14T07:31:15.126Z,21.97
2024-04-14T07:33:41.885Z,22.11
2024-04-14T07:36:08.685Z,22.22
2024-04-14T07:38:35.416Z,22.30
2024-04-14T07:41:02.177Z,22.50
2024-04-14T07:43:28.922Z,22.42
2024-04-14T07:45:57.227Z,22.66
2024-04-14T07:48:24.141Z,22.31
2024-04-14T07:50:50.968Z,22.76
2024-04-14T07:53:17.704Z,22.94
2024-04-14T07:55:44.509Z,23.13
2024-04-14T07:58:11.289Z,23.15
2024-04-14T08:00:38.114Z,23.16
2024-04-14T08:03:05.176Z,23.35
2024-04-14T08:05:32.022Z,22.73
2024-04-14T08:07:59.009Z,23.52
2024-04-14T08:10:25.788Z,23.42
2024-04-14T08:12:52.534Z,23.63
2024-04-14T08:15:19.261Z,23.51
2024-04-14T08:17:46.106Z,23.84
2024-04-14T08:20:12.865Z,23.72
2024-04-14T08:22:39.687Z,23.84
2024-04-14T08:25:06.780Z,24.01
2024-04-14T08:27:33.804Z,24.14
2024-04-14T08:30:00.652Z,24.03
2024-04-14T08:32:27.462Z,24.06
2024-04-14T08:34:54.290Z,24.36
2024-04-14T08:37:21.731Z,24.34
2024-04-14T08:39:48.577Z,24.55
2024-04-14T08:42:15.637Z,24.46
2024-04-14T08:44:44.160Z,24.26
2024-04-14T08:47:11.870Z,24.71
2024-04-14T08:49:41.444Z,24.60
2024-04-14T08:52:12.025Z,24.73
2024-04-14T08:54:39.643Z,24.62
2024-04-14T08:57:07.549Z,24.80
2024-04-14T08:59:34.808Z,24.67
2024-04-14T09:02:04.820Z,24.72
2024-04-14T09:04:31.668Z,24.77
2024-04-14T09:06:58.529Z,24.82
2024-04-14T09:09:25.356Z,24.84
2024-04-14T09:11:57.757Z,24.67
2024-04-14T09:14:24.592Z,24.68
2024-04-14T09:16:52.431Z,25.01
2024-04-14T09:19:19.758Z,24.77
2024-04-14T09:21:46.960Z,24.73
2024-04-14T09:24:13.808Z,25.10
2024-04-14T09:26:40.597Z,25.13
2024-04-14T09:29:08.929Z,25.13
2024-04-14T09:31:36.802Z,25.08
2024-04-14T09:34:06.977Z,25.21
2024-04-14T09:36:34.227Z,25.35
2024-04-14T09:39:04.432Z,25.38
2024-04-14T09:41:32.451Z,25.56
2024-04-14T09:44:00.836Z,25.74
2024-04-14T09:46:29.005Z,25.63
2024-04-14T09:48:57.777Z,25.67
2024-04-14T09:51:27.834Z,25.62
2024-04-14T09:53:55.563Z,25.48
2024-04-14T09:56:23.131Z,25.81
2024-04-14T09:58:50.180Z,25.70
2024-04-14T10:01:25.206Z,25.93
2024-04-14T10:03:57.581Z,25.95
2024-04-14T10:06:28.323Z,26.02
2024-04-14T10:08:55.398Z,26.27
2024-04-14T10:11:24.577Z,26.30
2024-04-14T10:13:59.255Z,26.30
2024-04-14T10:16:27.419Z,26.21
2024-04-14T10:18:54.373Z,26.52
2024-04-14T10:21:23.707Z,26.48
2024-04-14T10:23:58.904Z,26.42
2024-04-14T10:26:26.099Z,26.40
2024-04-14T10:28:54.757Z,26.54
2024-04-14T10:31:38.146Z,26.62
2024-04-14T10:34:08.042Z,26.74
2024-04-14T10:36:37.229Z,26.67
2024-04-14T10:39:06.335Z,26.59
2024-04-14T10:41:36.192Z,26.78
2024-04-14T10:44:03.028Z,26.54
2024-04-14T10:46:29.835Z,26.34
2024-04-14T10:48:57.038Z,26.68
2024-04-14T10:51:24.114Z,26.34
2024-04-14T10:53:54.770Z,26.44
2024-04-14T10:56:22.204Z,26.75
2024-04-14T10:58:49.022Z,26.79
2024-04-14T11:01:16.594Z,26.77
2024-04-14T11:03:43.960Z,27.03
2024-04-14T11:06:11.382Z,26.88
2024-04-14T11:08:40.071Z,26.95
2024-04-14T11:11:09.088Z,27.06
2024-04-14T11:13:36.834Z,26.57
2024-04-14T11:16:06.708Z,26.83
2024-04-14T11:18:36.259Z,26.99
2024-04-14T11:21:03.034Z,27.05
2024-04-14T11:23:29.827Z,27.11
2024-04-14T11:25:56.950Z,26.82
2024-04-14T11:28:23.987Z,27.11
2024-04-14T11:30:51.148Z,27.31
2024-04-14T11:33:22.385Z,27.30
2024-04-14T11:35:55.799Z,26.82
2024-04-14T11:38:22.577Z,27.34
2024-04-14T11:40:49.322Z,26.70
2024-04-14T11:43:16.142Z,27.35
2024-04-14T11:45:52.576Z,27.44
2024-04-14T11:48:21.601Z,27.39
2024-04-14T11:50:48.555Z,27.45
2024-04-14T11:53:15.364Z,27.48
2024-04-14T11:55:42.109Z,27.29
2024-04-14T11:58:09.969Z,27.35
2024-04-14T12:00:36.933Z,27.34
2024-04-14T12:03:04.464Z,27.25
2024-04-14T12:05:31.372Z,27.36
2024-04-14T12:07:58.090Z,27.22
2024-04-14T12:10:24.867Z,27.36
2024-04-14T12:12:51.915Z,27.14
2024-04-14T12:15:18.751Z,27.26
2024-04-14T12:17:45.525Z,27.18
2024-04-14T12:20:12.335Z,27.12
2024-04-14T12:22:39.179Z,27.19
2024-04-14T12:25:07.482Z,27.15
2024-04-14T12:27:34.323Z,27.17
2024-04-14T12:30:01.883Z,27.23
2024-04-14T12:32:28.832Z,27.03
2024-04-14T12:34:55.713Z,27.16
2024-04-14T12:37:22.458Z,27.34
2024-04-14T12:39:49.316Z,27.20
2024-04-14T12:42:16.068Z,27.16
2024-04-14T12:44:42.778Z,27.38
2024-04-14T12:47:09.599Z,27.22
2024-04-14T12:49:36.331Z,27.36
2024-04-14T12:52:03.216Z,27.25
2024-04-14T12:54:30.191Z,27.27
2024-04-14T12:56:57.068Z,27.35
2024-04-14T12:59:23.836Z,27.15
2024-04-14T13:01:51.212Z,27.32
2024-04-14T13:04:18.146Z,27.27
2024-04-14T13:06:45.071Z,27.13
2024-04-14T13:09:11.817Z,27.22
2024-04-14T13:11:38.598Z,27.12
2024-04-14T13:14:05.704Z,26.91
2024-04-14T13:16:32.538Z,27.35
2024-04-14T13:19:00.384Z,27.29
2024-04-14T13:21:29.833Z,27.22
2024-04-14T13:23:56.586Z,27.28
2024-04-14T13:26:26.496Z,27.47
2024-04-14T13:28:53.233Z,27.42
2024-04-14T13:31:19.976Z,27.26
2024-04-14T13:33:47.487Z,27.39
2024-04-14T13:36:14.290Z,27.46
2024-04-14T13:38:40.998Z,27.29
2024-04-14T13:41:08.779Z,27.43
2024-04-14T13:43:35.559Z,27.18
2024-04-14T13:46:02.463Z,27.02
2024-04-14T13:48:29.268Z,27.11
2024-04-14T13:50:56.014Z,27.13
2024-04-14T13:53:22.756Z,27.03
2024-04-14T13:55:49.475Z,27.17
2024-04-14T13:58:21.198Z,27.06
2024-04-14T14:00:48.710Z,27.16
2024-04-14T14:03:16.003Z,26.97
2024-04-14T14:08:09.609Z,27.11
2024-04-14T14:10:36.400Z,27.15
2024-04-14T14:13:03.210Z,27.25
2024-04-14T14:15:30.010Z,27.04
2024-04-14T14:17:57.042Z,27.30
2024-04-14T14:20:23.796Z,27.29
2024-04-14T14:22:50.544Z,27.42
2024-04-14T14:25:17.407Z,27.43
2024-04-14T14:27:44.423Z,27.40
2024-04-14T14:30:11.243Z,27.42
2024-04-14T14:32:40.909Z,27.38
2024-04-14T14:35:26.294Z,27.41
2024-04-14T14:37:53.105Z,27.13
2024-04-14T14:40:19.887Z,27.23
2024-04-14T14:42:48.073Z,27.20
2024-04-14T14:45:14.826Z,27.33
2024-04-14T14:47:41.617Z,27.26
2024-04-14T14:50:08.375Z,27.11
2024-04-14T14:52:35.132Z,27.23
2024-04-14T14:55:02.009Z,27.18
2024-04-14T14:57:28.841Z,27.22
2024-04-14T14:59:55.720Z,27.18
2024-04-14T15:02:22.487Z,27.21
2024-04-14T15:04:49.383Z,27.35
2024-04-14T15:07:16.174Z,27.30
2024-04-14T15:09:43.162Z,27.44
2024-04-14T15:12:12.508Z,27.28
2024-04-14T15:14:39.499Z,27.50
2024-04-14T15:17:06.627Z,27.35
2024-04-14T15:19:35.014Z,27.43
2024-04-14T15:22:02.219Z,27.22
2024-04-14T15:24:29.102Z,27.26
2024-04-14T15:26:55.879Z,27.13
2024-04-14T15:29:22.624Z,27.14
2024-04-14T15:31:49.544Z,26.98
2024-04-14T15:34:16.474Z,26.93
2024-04-14T15:36:43.302Z,27.09
2024-04-14T15:39:10.241Z,27.01
2024-04-14T15:41:36.999Z,27.08
2024-04-14T15:44:10.842Z,27.19
2024-04-14T15:46:44.436Z,27.08
2024-04-14T15:49:11.305Z,26.98
2024-04-14T15:51:38.117Z,27.03
2024-04-14T15:54:04.894Z,27.09
2024-04-14T15:56:31.639Z,26.99
2024-04-14T15:58:58.375Z,26.89
2024-04-14T16:01:25.553Z,26.77
2024-04-14T16:03:52.724Z,26.84
2024-04-14T16:06:22.146Z,26.93
2024-04-14T16:08:54.105Z,26.88
2024-04-14T16:11:20.904Z,26.91
2024-04-14T16:13:47.810Z,26.78
2024-04-14T16:16:15.608Z,26.98
2024-04-14T16:18:44.151Z,26.97
2024-04-14T16:21:11.073Z,26.74
2024-04-14T16:23:46.514Z,26.90
2024-04-14T16:26:14.005Z,26.92
2024-04-14T16:28:41.925Z,26.82
2024-04-14T16:31:10.434Z,26.51
2024-04-14T16:33:37.441Z,26.76
2024-04-14T16:36:04.717Z,26.80
2024-04-14T16:38:31.614Z,26.71
2024-04-14T16:40:58.347Z,26.66
2024-04-14T16:43:25.118Z,26.73
2024-04-14T16:45:51.944Z,26.58
2024-04-14T16:48:19.185Z,26.65
2024-04-14T16:50:46.112Z,26.50
2024-04-14T16:53:12.915Z,26.60
2024-04-14T16:55:39.668Z,26.49
2024-04-14T16:58:06.564Z,26.38
2024-04-14T17:00:33.980Z,26.48
2024-04-14T17:03:01.651Z,26.68
2024-04-14T17:05:28.531Z,26.69
2024-04-14T17:07:55.265Z,26.50
2024-04-14T17:10:22.151Z,26.62
2024-04-14T17:12:49.059Z,26.58
2024-04-14T17:15:16.400Z,26.52
2024-04-14T17:17:44.455Z,26.30
2024-04-14T17:20:13.702Z,26.37
2024-04-14T17:22:40.440Z,26.20
2024-04-14T17:25:07.560Z,25.63
2024-04-14T17:27:34.449Z,26.34
2024-04-14T17:30:03.296Z,26.11
2024-04-14T17:32:30.303Z,26.29
2024-04-14T17:34:57.281Z,26.12
2024-04-14T17:40:15.880Z,26.19
2024-04-14T17:42:43.041Z,25.81
2024-04-14T17:45:10.237Z,26.15
2024-04-14T17:47:37.447Z,26.15
2024-04-14T17:50:04.835Z,26.01
2024-04-14T17:52:31.988Z,26.16
2024-04-14T17:54:59.117Z,26.08
2024-04-14T17:57:26.405Z,26.06
2024-04-14T17:59:53.674Z,25.92
2024-04-14T18:02:21.613Z,25.90
2024-04-14T18:04:48.579Z,25.90
2024-04-14T18:07:15.712Z,25.67
2024-04-14T18:09:43.641Z,25.78
2024-04-14T18:12:10.561Z,25.59
2024-04-14T18:14:37.453Z,25.51
2024-04-14T18:17:04.560Z,25.72
2024-04-14T18:19:31.859Z,25.52
2024-04-14T18:21:58.781Z,25.52
2024-04-14T18:24:39.855Z,25.33
2024-04-14T18:27:14.688Z,25.47
2024-04-14T18:29:42.284Z,25.05
2024-04-14T18:32:09.378Z,25.21
2024-04-14T18:34:36.220Z,23.16
2024-04-14T18:37:04.029Z,23.10
2024-04-14T18:39:31.468Z,23.76
2024-04-14T19:02:45.870Z,24.61
2024-04-14T19:05:17.308Z,24.61
2024-04-14T19:07:49.701Z,22.50
2024-04-14T19:13:00.036Z,22.13
2024-04-14T19:15:31.297Z,24.38
2024-04-14T19:18:03.078Z,24.23
2024-04-14T19:23:16.834Z,23.29
2024-04-14T19:25:43.711Z,24.13
2024-04-14T19:28:12.833Z,23.99
2024-04-14T19:30:41.197Z,24.05
2024-04-14T19:33:08.221Z,23.93
2024-04-14T19:35:43.363Z,23.83
2024-04-14T19:38:14.127Z,23.79
2024-04-14T19:40:41.104Z,23.65
2024-04-14T19:43:08.114Z,23.51
2024-04-14T19:45:35.294Z,23.54
2024-04-14T19:48:02.499Z,23.40
2024-04-14T19:50:29.544Z,23.39
2024-04-14T19:52:57.960Z,23.18
2024-04-14T19:55:28.066Z,22.97
2024-04-14T19:57:55.028Z,23.02
2024-04-14T20:00:22.211Z,23.00
2024-04-14T20:02:49.205Z,22.87
2024-04-14T20:05:16.210Z,22.74
2024-04-14T20:07:43.070Z,22.76
2024-04-14T20:10:11.505Z,22.81
2024-04-14T20:12:38.487Z,22.67
2024-04-14T20:15:05.751Z,22.66
2024-04-14T20:17:32.724Z,22.75
2024-04-14T20:19:59.852Z,22.70
2024-04-14T20:22:26.826Z,22.73
2024-04-14T20:24:53.734Z,22.59
2024-04-14T20:27:20.716Z,22.56
2024-04-14T20:29:47.708Z,22.29
2024-04-14T20:32:14.575Z,22.54
2024-04-14T20:34:42.515Z,22.31
2024-04-14T20:37:09.399Z,22.03
2024-04-14T20:39:36.247Z,21.88
2024-04-14T20:42:03.071Z,21.36
2024-04-14T20:44:29.933Z,22.03
2024-04-14T20:46:56.684Z,22.25
2024-04-14T20:49:23.465Z,21.61
2024-04-14T20:51:50.289Z,22.27
2024-04-14T20:54:17.097Z,21.76
2024-04-14T20:56:43.868Z,22.19
2024-04-14T20:59:10.690Z,22.05
2024-04-14T21:01:37.523Z,22.27
2024-04-14T21:04:04.569Z,22.23
2024-04-14T21:06:31.368Z,22.14
2024-04-14T21:08:58.382Z,21.81
2024-04-14T21:11:25.242Z,22.06
2024-04-14T21:13:52.004Z,22.08
2024-04-14T21:16:18.906Z,22.11
2024-04-14T21:18:45.873Z,21.83
2024-04-14T21:21:12.880Z,21.50
2024-04-14T21:23:42.938Z,21.81
2024-04-14T21:26:09.921Z,21.73
2024-04-14T21:28:37.858Z,21.49
2024-04-14T21:31:05.525Z,21.82
2024-04-14T21:33:32.859Z,21.80
2024-04-14T21:35:59.718Z,21.56
2024-04-14T21:38:26.532Z,21.17
2024-04-14T21:40:56.614Z,21.62
2024-04-14T21:43:23.454Z,21.34
2024-04-14T21:45:57.611Z,21.49
2024-04-14T21:48:27.055Z,21.31
2024-04-14T21:51:05.051Z,21.46
2024-04-14T21:53:33.399Z,21.45
2024-04-14T21:56:01.520Z,21.14
2024-04-14T21:58:33.232Z,20.76
2024-04-14T22:01:02.160Z,20.72
2024-04-14T22:03:29.061Z,20.89
2024-04-14T22:05:57.933Z,21.03
2024-04-14T22:08:30.676Z,21.21
2024-04-14T22:10:59.966Z,21.10
2024-04-14T22:13:29.194Z,20.49
2024-04-14T22:15:56.200Z,20.92
2024-04-14T22:18:23.601Z,20.04
2024-04-14T22:20:50.449Z,20.79
2024-04-14T22:23:17.242Z,20.47
2024-04-14T22:25:43.992Z,20.32
2024-04-14T22:28:11.093Z,20.59
2024-04-14T22:30:38.782Z,20.12
2024-04-14T22:33:08.303Z,20.53
2024-04-14T22:35:35.068Z,20.28
2024-04-14T22:38:02.709Z,20.25
2024-04-14T22:40:30.124Z,20.44
2024-04-14T22:42:57.554Z,20.11
2024-04-14T22:45:24.390Z,20.60
2024-04-14T22:47:51.561Z,20.58
2024-04-14T22:50:18.804Z,20.05
2024-04-14T22:52:45.622Z,20.01
2024-04-14T22:55:12.403Z,19.48
2024-04-14T22:57:39.297Z,19.90
2024-04-14T23:00:11.297Z,19.85
2024-04-14T23:02:38.443Z,20.17
2024-04-14T23:05:05.493Z,20.25
2024-04-14T23:07:32.292Z,20.10
2024-04-14T23:10:00.745Z,19.93
2024-04-14T23:12:27.843Z,19.69
2024-04-14T23:14:54.948Z,20.17
2024-04-14T23:17:21.849Z,19.79
2024-04-14T23:19:49.695Z,19.97
2024-04-14T23:22:16.740Z,19.69
2024-04-14T23:24:43.740Z,19.53
2024-04-14T23:27:10.611Z,19.60
2024-04-14T23:29:37.927Z,19.62
2024-04-14T23:32:06.390Z,19.74
2024-04-14T23:34:33.395Z,20.00
2024-04-14T23:37:01.422Z,19.99
2024-04-14T23:39:28.171Z,19.95
2024-04-14T23:41:54.996Z,20.04
2024-04-14T23:44:21.725Z,20.15
2024-04-14T23:46:48.505Z,19.99
2024-04-14T23:49:15.596Z,20.10
2024-04-14T23:51:42.382Z,19.62
2024-04-14T23:54:09.315Z,20.11
2024-04-14T23:56:36.053Z,20.04
2024-04-14T23:59:02.842Z,19.94
